Time,TemperatureF,DewpointF,PressureIn,WindDirection,WindDirectionDegrees,WindSpeedMPH,WindSpeedGustMPH,Humidity,HourlyPrecipIn,Conditions,Clouds,dailyrainin,SoftwareType,DateUTC
2013-01-18 00:00:00,33.0,21.0,30.07,NNE,33,2.0,4.0,61,0.00,,,0.00,WeatherCatV1.01B143,2013-01-18 05:00:00,
2013-01-18 00:02:00,33.0,21.0,30.07,ESE,103,2.0,5.0,61,0.00,,,0.00,WeatherCatV1.01B143,2013-01-18 05:02:00,
2013-01-18 00:07:00,32.9,20.9,30.06,NNE,29,4.0,6.0,61,0.00,,,0.00,WeatherCatV1.01B143,2013-01-18 05:07:00,
2013-01-18 00:12:00,32.8,21.2,30.05,NNE,29,0.0,2.0,62,0.00,,,0.00,WeatherCatV1.01B143,2013-01-18 05:12:00,
2013-01-18 00:17:00,32.7,21.1,30.03,NE,36,2.0,7.0,62,0.00,,,0.00,WeatherCatV1.01B143,2013-01-18 05:17:00,
2013-01-18 00:22:00,32.7,21.5,30.03,NNE,33,2.0,8.0,63,0.00,,,0.00,WeatherCatV1.01B143,2013-01-18 05:22:00,
2013-01-18 00:27:00,32.6,21.4,30.05,NNE,29,4.0,6.0,63,0.00,,,0.00,WeatherCatV1.01B143,2013-01-18 05:27:00,
2013-01-18 00:32:00,32.7,21.5,30.05,NE,37,6.0,9.0,63,0.00,,,0.00,WeatherCatV1.01B143,2013-01-18 05:32:00,
2013-01-18 00:37:00,32.7,20.8,30.06,NNW,330,5.0,6.0,61,0.00,,,0.00,WeatherCatV1.01B143,2013-01-18 05:37:00,
2013-01-18 00:42:00,32.7,20.4,30.04,NNE,31,6.0,11.0,60,0.00,,,0.00,WeatherCatV1.01B143,2013-01-18 05:42:00,
2013-01-18 00:47:00,32.6,20.3,30.04,East,84,3.0,8.0,60,0.00,,,0.00,WeatherCatV1.01B143,2013-01-18 05:47:00,
2013-01-18 00:52:00,32.5,20.2,30.04,North,3,5.0,6.0,60,0.00,,,0.00,WeatherCatV1.01B143,2013-01-18 05:52:00,
2013-01-18 00:57:00,32.5,20.2,30.04,East,79,4.0,7.0,60,0.00,,,0.00,WeatherCatV1.01B143,2013-01-18 05:57:00,
2013-01-18 01:02:00,32.5,20.2,30.03,NNE,29,2.0,11.0,60,0.00,,,0.00,WeatherCatV1.01B143,2013-01-18 06:02:00,
2013-01-18 01:07:00,32.4,20.1,30.03,NE,37,1.0,5.0,60,0.00,,,0.00,WeatherCatV1.01B143,2013-01-18 06:07:00,
2013-01-18 01:12:00,32.4,19.7,30.03,NE,48,2.0,7.0,59,0.00,,,0.00,WeatherCatV1.01B143,2013-01-18 06:12:00,
2013-01-18 01:17:00,32.3,19.6,30.02,NE,41,4.0,13.0,59,0.00,,,0.00,WeatherCatV1.01B143,2013-01-18 06:17:00,
2013-01-18 01:22:00,32.3,19.2,30.04,NNE,24,8.0,12.0,58,0.00,,,0.00,WeatherCatV1.01B143,2013-01-18 06:22:00,
2013-01-18 01:27:00,32.3,19.2,30.04,NNE,24,1.0,9.0,58,0.00,,,0.00,WeatherCatV1.01B143,2013-01-18 06:27:00,
2013-01-18 01:32:00,32.2,19.1,30.05,NE,43,2.0,5.0,58,0.00,,,0.00,WeatherCatV1.01B143,2013-01-18 06:32:00,
2013-01-18 01:37:00,32.2,19.1,30.06,NNE,24,9.0,9.0,58,0.00,,,0.00,WeatherCatV1.01B143,2013-01-18 06:37:00,
2013-01-18 01:42:00,32.2,19.1,30.06,ENE,58,2.0,7.0,58,0.00,,,0.00,WeatherCatV1.01B143,2013-01-18 06:42:00,
2013-01-18 01:47:00,32.0,20.1,30.05,NNE,14,6.0,9.0,61,0.00,,,0.00,WeatherCatV1.01B143,2013-01-18 06:47:00,
2013-01-18 01:52:00,31.3,21.6,30.04,NE,46,5.0,10.0,67,0.00,,,0.00,WeatherCatV1.01B143,2013-01-18 06:52:00,
2013-01-18 01:57:00,30.4,22.5,30.05,North,356,6.0,11.0,72,0.00,,,0.00,WeatherCatV1.01B143,2013-01-18 06:57:00,
2013-01-18 02:02:00,29.8,23.2,30.08,North,10,5.0,9.0,76,0.00,,,0.00,WeatherCatV1.01B143,2013-01-18 07:02:00,
2013-01-18 02:07:00,29.3,23.3,30.09,NNE,30,11.0,13.0,78,0.00,,,0.00,WeatherCatV1.01B143,2013-01-18 07:07:00,
2013-01-18 02:12:00,28.8,23.7,30.09,NNE,26,12.0,12.0,81,0.00,,,0.00,WeatherCatV1.01B143,2013-01-18 07:12:00,
2013-01-18 02:17:00,28.5,24.0,30.10,NE,34,1.0,10.0,83,0.00,,,0.00,WeatherCatV1.01B143,2013-01-18 07:17:00,
2013-01-18 02:22:00,28.0,24.1,30.12,North,358,3.0,9.0,85,0.00,,,0.00,WeatherCatV1.01B143,2013-01-18 07:22:00,
2013-01-18 02:27:00,27.7,24.1,30.12,NNE,29,2.0,5.0,86,0.00,,,0.00,WeatherCatV1.01B143,2013-01-18 07:27:00,
2013-01-18 02:32:00,27.5,24.1,30.12,NE,43,2.0,6.0,87,0.00,,,0.00,WeatherCatV1.01B143,2013-01-18 07:32:00,
2013-01-18 02:37:00,27.4,24.3,30.10,NNE,31,6.0,6.0,88,0.00,,,0.00,WeatherCatV1.01B143,2013-01-18 07:37:00,
2013-01-18 02:42:00,27.2,23.9,30.09,SSE,148,0.0,7.0,87,0.00,,,0.00,WeatherCatV1.01B143,2013-01-18 07:42:00,
2013-01-18 02:47:00,27.1,23.8,30.08,NNE,23,6.0,8.0,87,0.00,,,0.00,WeatherCatV1.01B143,2013-01-18 07:47:00,
2013-01-18 02:52:00,27.1,23.8,30.07,East,87,0.0,13.0,87,0.00,,,0.00,WeatherCatV1.01B143,2013-01-18 07:52:00,
2013-01-18 02:57:00,27.2,23.6,30.06,NNE,19,1.0,5.0,86,0.00,,,0.00,WeatherCatV1.01B143,2013-01-18 07:57:00,
2013-01-18 03:02:00,27.4,22.9,30.08,ESE,103,2.0,8.0,83,0.00,,,0.00,WeatherCatV1.01B143,2013-01-18 08:02:00,
2013-01-18 03:07:00,27.7,22.6,30.09,NE,41,0.0,6.0,81,0.00,,,0.00,WeatherCatV1.01B143,2013-01-18 08:07:00,
2013-01-18 03:12:00,27.7,22.6,30.08,NE,46,2.0,4.0,81,0.00,,,0.00,WeatherCatV1.01B143,2013-01-18 08:12:00,
2013-01-18 03:17:00,27.8,22.7,30.10,ENE,72,0.0,4.0,81,0.00,,,0.00,WeatherCatV1.01B143,2013-01-18 08:17:00,
2013-01-18 03:22:00,27.9,22.8,30.10,NNE,24,2.0,6.0,81,0.00,,,0.00,WeatherCatV1.01B143,2013-01-18 08:22:00,
2013-01-18 03:27:00,28.0,23.2,30.11,ENE,78,0.0,5.0,82,0.00,,,0.00,WeatherCatV1.01B143,2013-01-18 08:27:00,
2013-01-18 03:32:00,28.0,23.2,30.11,NNE,23,3.0,5.0,82,0.00,,,0.00,WeatherCatV1.01B143,2013-01-18 08:32:00,
2013-01-18 03:37:00,27.9,23.1,30.10,NE,34,0.0,5.0,82,0.00,,,0.00,WeatherCatV1.01B143,2013-01-18 08:37:00,
2013-01-18 03:42:00,28.0,23.5,30.10,NE,48,2.0,4.0,83,0.00,,,0.00,WeatherCatV1.01B143,2013-01-18 08:42:00,
2013-01-18 03:47:00,28.0,23.5,30.09,ENE,68,1.0,3.0,83,0.00,,,0.00,WeatherCatV1.01B143,2013-01-18 08:47:00,
2013-01-18 03:52:00,28.0,23.5,30.08,NNE,24,0.0,3.0,83,0.00,,,0.00,WeatherCatV1.01B143,2013-01-18 08:52:00,
2013-01-18 03:57:00,27.9,23.1,30.07,NE,55,3.0,6.0,82,0.00,,,0.00,WeatherCatV1.01B143,2013-01-18 08:57:00,
2013-01-18 04:02:00,27.8,23.3,30.08,NNE,19,2.0,2.0,83,0.00,,,0.00,WeatherCatV1.01B143,2013-01-18 09:02:00,
2013-01-18 04:07:00,27.8,23.3,30.08,ENE,65,4.0,4.0,83,0.00,,,0.00,WeatherCatV1.01B143,2013-01-18 09:07:00,
2013-01-18 04:12:00,27.8,23.6,30.09,ENE,72,3.0,3.0,84,0.00,,,0.00,WeatherCatV1.01B143,2013-01-18 09:12:00,
2013-01-18 04:17:00,27.9,23.7,30.09,NE,48,0.0,1.0,84,0.00,,,0.00,WeatherCatV1.01B143,2013-01-18 09:17:00,
2013-01-18 04:22:00,27.9,23.4,30.08,North,355,4.0,5.0,83,0.00,,,0.00,WeatherCatV1.01B143,2013-01-18 09:22:00,
2013-01-18 04:27:00,27.9,23.4,30.09,NE,50,0.0,2.0,83,0.00,,,0.00,WeatherCatV1.01B143,2013-01-18 09:27:00,
2013-01-18 04:32:00,28.0,23.2,30.10,North,6,2.0,3.0,82,0.00,,,0.00,WeatherCatV1.01B143,2013-01-18 09:32:00,
2013-01-18 04:37:00,28.0,23.2,30.09,NNE,31,0.0,3.0,82,0.00,,,0.00,WeatherCatV1.01B143,2013-01-18 09:37:00,
2013-01-18 04:42:00,28.0,23.2,30.09,NNE,22,0.0,2.0,82,0.00,,,0.00,WeatherCatV1.01B143,2013-01-18 09:42:00,
2013-01-18 04:47:00,28.0,22.9,30.10,North,1,5.0,5.0,81,0.00,,,0.00,WeatherCatV1.01B143,2013-01-18 09:47:00,
2013-01-18 04:52:00,28.2,22.2,30.11,NNE,22,1.0,4.0,78,0.00,,,0.00,WeatherCatV1.01B143,2013-01-18 09:52:00,
2013-01-18 04:57:00,28.3,21.4,30.11,NNE,17,1.0,8.0,75,0.00,,,0.00,WeatherCatV1.01B143,2013-01-18 09:57:00,
2013-01-18 05:02:00,27.5,20.0,30.11,NE,40,9.0,11.0,73,0.00,,,0.00,WeatherCatV1.01B143,2013-01-18 10:02:00,
2013-01-18 05:07:00,27.5,20.0,30.11,NE,40,9.0,9.0,73,0.00,,,0.00,WeatherCatV1.01B143,2013-01-18 10:07:00,
2013-01-18 05:12:00,-999.0,-99.9,30.11,North,-999,-999.0,9.0,-999,0.00,,,0.00,WeatherCatV1.01B143,2013-01-18 10:12:00,
2013-01-18 05:17:00,-999.0,-99.9,30.11,North,-999,-999.0,0.0,-999,0.00,,,0.00,WeatherCatV1.01B143,2013-01-18 10:17:00,
2013-01-18 05:22:00,-999.0,-99.9,30.12,North,-999,-999.0,0.0,-999,0.00,,,0.00,WeatherCatV1.01B143,2013-01-18 10:22:00,
2013-01-18 05:27:00,-999.0,-99.9,30.13,North,-999,-999.0,0.0,-999,0.00,,,0.00,WeatherCatV1.01B143,2013-01-18 10:27:00,
2013-01-18 05:32:00,-999.0,-99.9,30.14,North,-999,-999.0,0.0,-999,0.00,,,0.00,WeatherCatV1.01B143,2013-01-18 10:32:00,
2013-01-18 05:37:00,-999.0,-99.9,30.14,North,-999,-999.0,0.0,-999,0.00,,,0.00,WeatherCatV1.01B143,2013-01-18 10:37:00,
2013-01-18 05:42:00,-999.0,-99.9,30.15,North,-999,-999.0,0.0,-999,0.00,,,0.00,WeatherCatV1.01B143,2013-01-18 10:42:00,
2013-01-18 05:47:00,-999.0,-99.9,30.15,North,-999,-999.0,0.0,-999,0.00,,,0.00,WeatherCatV1.01B143,2013-01-18 10:47:00,
2013-01-18 05:52:00,-999.0,-99.9,30.16,North,-999,-999.0,0.0,-999,0.00,,,0.00,WeatherCatV1.01B143,2013-01-18 10:52:00,
2013-01-18 05:57:00,-999.0,-99.9,30.16,North,-999,-999.0,0.0,-999,0.00,,,0.00,WeatherCatV1.01B143,2013-01-18 10:57:00,
2013-01-18 06:02:00,-999.0,-99.9,30.17,North,-999,-999.0,0.0,-999,0.00,,,0.00,WeatherCatV1.01B143,2013-01-18 11:02:00,
2013-01-18 06:07:00,-999.0,-99.9,30.17,North,-999,-999.0,0.0,-999,0.00,,,0.00,WeatherCatV1.01B143,2013-01-18 11:07:00,
2013-01-18 06:12:00,-999.0,-99.9,30.17,North,-999,-999.0,0.0,-999,0.00,,,0.00,WeatherCatV1.01B143,2013-01-18 11:12:00,
2013-01-18 06:17:00,-999.0,-99.9,30.18,North,-999,-999.0,0.0,-999,0.00,,,0.00,WeatherCatV1.01B143,2013-01-18 11:17:00,
2013-01-18 06:22:00,-999.0,-99.9,30.19,North,-999,-999.0,0.0,-999,0.00,,,0.00,WeatherCatV1.01B143,2013-01-18 11:22:00,
2013-01-18 06:27:00,-999.0,-99.9,30.18,North,-999,-999.0,0.0,-999,0.00,,,0.00,WeatherCatV1.01B143,2013-01-18 11:27:00,
2013-01-18 06:32:00,-999.0,-99.9,30.19,North,-999,-999.0,0.0,-999,0.00,,,0.00,WeatherCatV1.01B143,2013-01-18 11:32:00,
2013-01-18 06:37:00,-999.0,-99.9,30.20,North,-999,-999.0,0.0,-999,0.00,,,0.00,WeatherCatV1.01B143,2013-01-18 11:37:00,
2013-01-18 06:42:00,-999.0,-99.9,30.20,North,-999,-999.0,0.0,-999,0.00,,,0.00,WeatherCatV1.01B143,2013-01-18 11:42:00,
2013-01-18 06:47:00,-999.0,-99.9,30.20,North,-999,-999.0,0.0,-999,0.00,,,0.00,WeatherCatV1.01B143,2013-01-18 11:47:00,
2013-01-18 06:52:00,-999.0,-99.9,30.20,North,-999,-999.0,0.0,-999,0.00,,,0.00,WeatherCatV1.01B143,2013-01-18 11:52:00,
2013-01-18 06:57:00,-999.0,-99.9,30.22,North,-999,-999.0,0.0,-999,0.00,,,0.00,WeatherCatV1.01B143,2013-01-18 11:57:00,
2013-01-18 07:02:00,-999.0,-99.9,30.22,North,-999,-999.0,0.0,-999,0.00,,,0.00,WeatherCatV1.01B143,2013-01-18 12:02:00,
2013-01-18 07:07:00,-999.0,-99.9,30.22,North,-999,-999.0,0.0,-999,0.00,,,0.00,WeatherCatV1.01B143,2013-01-18 12:07:00,
2013-01-18 07:12:00,-999.0,-99.9,30.22,North,-999,-999.0,0.0,-999,0.00,,,0.00,WeatherCatV1.01B143,2013-01-18 12:12:00,
2013-01-18 07:17:00,-999.0,-99.9,30.23,North,-999,-999.0,0.0,-999,0.00,,,0.00,WeatherCatV1.01B143,2013-01-18 12:17:00,
2013-01-18 07:22:00,-999.0,-99.9,30.23,North,-999,-999.0,0.0,-999,0.00,,,0.00,WeatherCatV1.01B143,2013-01-18 12:22:00,
2013-01-18 07:27:00,-999.0,-99.9,30.24,North,-999,-999.0,0.0,-999,0.00,,,0.00,WeatherCatV1.01B143,2013-01-18 12:27:00,
2013-01-18 07:32:00,-999.0,-99.9,30.25,North,-999,-999.0,0.0,-999,0.00,,,0.00,WeatherCatV1.01B143,2013-01-18 12:32:00,
2013-01-18 07:37:00,25.1,7.3,30.26,NNE,18,11.0,18.0,46,0.00,,,0.00,WeatherCatV1.01B143,2013-01-18 12:37:00,
2013-01-18 07:42:00,24.9,6.1,30.27,NNW,339,9.0,22.0,44,0.00,,,0.00,WeatherCatV1.01B143,2013-01-18 12:42:00,
2013-01-18 07:47:00,24.8,5.5,30.28,West,264,16.0,19.0,43,0.00,,,0.00,WeatherCatV1.01B143,2013-01-18 12:47:00,
2013-01-18 07:52:00,24.8,6.0,30.28,North,8,8.0,17.0,44,0.00,,,0.00,WeatherCatV1.01B143,2013-01-18 12:52:00,
2013-01-18 07:57:00,24.8,5.5,30.29,North,6,16.0,17.0,43,0.00,,,0.00,WeatherCatV1.01B143,2013-01-18 12:57:00,
2013-01-18 08:02:00,24.7,6.4,30.29,NNE,19,22.0,22.0,45,0.00,,,0.00,WeatherCatV1.01B143,2013-01-18 13:02:00,
2013-01-18 08:07:00,24.6,5.8,30.29,NW,319,13.0,22.0,44,0.00,,,0.00,WeatherCatV1.01B143,2013-01-18 13:07:00,
2013-01-18 08:12:00,24.5,4.7,30.30,NW,316,14.0,20.0,42,0.00,,,0.00,WeatherCatV1.01B143,2013-01-18 13:12:00,
2013-01-18 08:17:00,24.4,4.6,30.30,NNE,22,8.0,15.0,42,0.00,,,0.00,WeatherCatV1.01B143,2013-01-18 13:17:00,
2013-01-18 08:22:00,24.3,4.5,30.30,NW,321,12.0,22.0,42,0.00,,,0.00,WeatherCatV1.01B143,2013-01-18 13:22:00,
2013-01-18 08:27:00,24.3,4.0,30.31,WNW,301,14.0,20.0,41,0.00,,,0.00,WeatherCatV1.01B143,2013-01-18 13:27:00,
2013-01-18 08:32:00,24.4,4.6,30.32,North,351,15.0,20.0,42,0.00,,,0.00,WeatherCatV1.01B143,2013-01-18 13:32:00,
2013-01-18 08:37:00,24.3,3.5,30.32,NNW,341,12.0,25.0,40,0.00,,,0.00,WeatherCatV1.01B143,2013-01-18 13:37:00,
2013-01-18 08:42:00,24.3,3.5,30.32,NNE,16,14.0,22.0,40,0.00,,,0.00,WeatherCatV1.01B143,2013-01-18 13:42:00,
2013-01-18 08:47:00,24.5,4.2,30.33,NNE,29,11.0,11.0,41,0.00,,,0.00,WeatherCatV1.01B143,2013-01-18 13:47:00,
2013-01-18 08:52:00,24.4,3.0,30.33,North,355,17.0,21.0,39,0.00,,,0.00,WeatherCatV1.01B143,2013-01-18 13:52:00,
2013-01-18 08:57:00,24.5,4.7,30.33,North,1,16.0,17.0,42,0.00,,,0.00,WeatherCatV1.01B143,2013-01-18 13:57:00,
2013-01-18 09:02:00,24.5,3.1,30.34,NNW,337,8.0,16.0,39,0.00,,,0.00,WeatherCatV1.01B143,2013-01-18 14:02:00,
2013-01-18 09:07:00,24.5,3.7,30.34,NE,48,6.0,17.0,40,0.00,,,0.00,WeatherCatV1.01B143,2013-01-18 14:07:00,
2013-01-18 09:12:00,24.6,3.2,30.34,North,355,12.0,16.0,39,0.00,,,0.00,WeatherCatV1.01B143,2013-01-18 14:12:00,
2013-01-18 09:17:00,24.7,3.3,30.35,NNE,23,8.0,15.0,39,0.00,,,0.00,WeatherCatV1.01B143,2013-01-18 14:17:00,
2013-01-18 09:22:00,24.9,4.6,30.35,WNW,290,6.0,12.0,41,0.00,,,0.00,WeatherCatV1.01B143,2013-01-18 14:22:00,
2013-01-18 09:27:00,24.9,2.9,30.35,NW,320,13.0,22.0,38,0.00,,,0.00,WeatherCatV1.01B143,2013-01-18 14:27:00,
2013-01-18 09:32:00,24.6,3.2,30.36,NNW,344,19.0,20.0,39,0.00,,,0.00,WeatherCatV1.01B143,2013-01-18 14:32:00,
2013-01-18 09:37:00,24.7,3.3,30.36,NW,308,18.0,18.0,39,0.00,,,0.00,WeatherCatV1.01B143,2013-01-18 14:37:00,
2013-01-18 09:42:00,24.5,3.1,30.36,North,9,10.0,22.0,39,0.00,,,0.00,WeatherCatV1.01B143,2013-01-18 14:42:00,
2013-01-18 09:47:00,24.6,3.8,30.36,NNW,341,12.0,20.0,40,0.00,,,0.00,WeatherCatV1.01B143,2013-01-18 14:47:00,
2013-01-18 09:52:00,24.6,3.8,30.36,North,9,13.0,20.0,40,0.00,,,0.00,WeatherCatV1.01B143,2013-01-18 14:52:00,
2013-01-18 09:57:00,24.6,2.7,30.36,North,356,10.0,18.0,38,0.00,,,0.00,WeatherCatV1.01B143,2013-01-18 14:57:00,
2013-01-18 10:02:00,24.9,3.5,30.37,North,10,11.0,18.0,39,0.00,,,0.00,WeatherCatV1.01B143,2013-01-18 15:02:00,
2013-01-18 10:07:00,24.9,3.5,30.38,NW,307,14.0,17.0,39,0.00,,,0.00,WeatherCatV1.01B143,2013-01-18 15:07:00,
2013-01-18 10:12:00,24.9,3.5,30.38,NNW,328,18.0,20.0,39,0.00,,,0.00,WeatherCatV1.01B143,2013-01-18 15:12:00,
2013-01-18 10:17:00,24.7,3.3,30.38,NW,312,22.0,25.0,39,0.00,,,0.00,WeatherCatV1.01B143,2013-01-18 15:17:00,
2013-01-18 10:22:00,24.5,2.0,30.38,NW,322,13.0,24.0,37,0.00,,,0.00,WeatherCatV1.01B143,2013-01-18 15:22:00,
2013-01-18 10:27:00,24.7,2.2,30.39,North,1,14.0,18.0,37,0.00,,,0.00,WeatherCatV1.01B143,2013-01-18 15:27:00,
2013-01-18 10:32:00,24.8,2.8,30.38,NNE,27,12.0,17.0,38,0.00,,,0.00,WeatherCatV1.01B143,2013-01-18 15:32:00,
2013-01-18 10:37:00,24.8,3.4,30.39,North,355,18.0,18.0,39,0.00,,,0.00,WeatherCatV1.01B143,2013-01-18 15:37:00,
2013-01-18 10:42:00,24.8,2.8,30.39,NNW,346,21.0,24.0,38,0.00,,,0.00,WeatherCatV1.01B143,2013-01-18 15:42:00,
2013-01-18 10:47:00,24.6,1.5,30.39,NNE,17,9.0,20.0,36,0.00,,,0.00,WeatherCatV1.01B143,2013-01-18 15:47:00,
2013-01-18 10:52:00,24.7,2.2,30.39,NNW,347,13.0,22.0,37,0.00,,,0.00,WeatherCatV1.01B143,2013-01-18 15:52:00,
2013-01-18 10:57:00,24.8,2.8,30.39,NNW,342,11.0,15.0,38,0.00,,,0.00,WeatherCatV1.01B143,2013-01-18 15:57:00,
2013-01-18 11:02:00,25.0,1.9,30.39,WNW,294,10.0,21.0,36,0.00,,,0.00,WeatherCatV1.01B143,2013-01-18 16:02:00,
2013-01-18 11:07:00,25.5,3.5,30.38,NW,311,9.0,12.0,38,0.00,,,0.00,WeatherCatV1.01B143,2013-01-18 16:07:00,
2013-01-18 11:12:00,25.0,1.3,30.38,NNW,335,11.0,21.0,35,0.00,,,0.00,WeatherCatV1.01B143,2013-01-18 16:12:00,
2013-01-18 11:17:00,25.4,3.4,30.38,NW,308,11.0,19.0,38,0.00,,,0.00,WeatherCatV1.01B143,2013-01-18 16:17:00,
2013-01-18 11:22:00,25.7,3.1,30.38,NNW,338,19.0,20.0,37,0.00,,,0.00,WeatherCatV1.01B143,2013-01-18 16:22:00,
2013-01-18 11:27:00,25.5,2.9,30.38,North,349,18.0,18.0,37,0.00,,,0.00,WeatherCatV1.01B143,2013-01-18 16:27:00,
2013-01-18 11:32:00,25.6,1.8,30.38,North,356,5.0,21.0,35,0.00,,,0.00,WeatherCatV1.01B143,2013-01-18 16:32:00,
2013-01-18 11:37:00,25.8,2.0,30.38,NNE,19,7.0,17.0,35,0.00,,,0.00,WeatherCatV1.01B143,2013-01-18 16:37:00,
2013-01-18 11:42:00,25.9,3.8,30.38,WNW,303,9.0,14.0,38,0.00,,,0.00,WeatherCatV1.01B143,2013-01-18 16:42:00,
2013-01-18 11:47:00,25.6,1.2,30.38,NW,311,18.0,22.0,34,0.00,,,0.00,WeatherCatV1.01B143,2013-01-18 16:47:00,
2013-01-18 11:52:00,25.4,2.2,30.39,NW,320,13.0,18.0,36,0.00,,,0.00,WeatherCatV1.01B143,2013-01-18 16:52:00,
2013-01-18 11:57:00,25.3,0.9,30.38,NNW,339,7.0,17.0,34,0.00,,,0.00,WeatherCatV1.01B143,2013-01-18 16:57:00,
2013-01-18 12:02:00,25.5,2.3,30.38,NNW,346,4.0,18.0,36,0.00,,,0.00,WeatherCatV1.01B143,2013-01-18 17:02:00,
2013-01-18 12:07:00,25.6,1.8,30.39,NW,308,15.0,26.0,35,0.00,,,0.00,WeatherCatV1.01B143,2013-01-18 17:07:00,
2013-01-18 12:12:00,25.5,2.3,30.39,NW,305,23.0,27.0,36,0.00,,,0.00,WeatherCatV1.01B143,2013-01-18 17:12:00,
2013-01-18 12:17:00,25.5,2.3,30.39,North,10,14.0,15.0,36,0.00,,,0.00,WeatherCatV1.01B143,2013-01-18 17:17:00,
2013-01-18 12:22:00,25.6,2.4,30.39,WNW,301,21.0,21.0,36,0.00,,,0.00,WeatherCatV1.01B143,2013-01-18 17:22:00,
2013-01-18 12:27:00,25.5,1.7,30.39,West,278,12.0,24.0,35,0.00,,,0.00,WeatherCatV1.01B143,2013-01-18 17:27:00,
2013-01-18 12:32:00,25.2,0.8,30.40,North,355,12.0,20.0,34,0.00,,,0.00,WeatherCatV1.01B143,2013-01-18 17:32:00,
2013-01-18 12:37:00,25.4,2.2,30.40,NW,310,13.0,17.0,36,0.00,,,0.00,WeatherCatV1.01B143,2013-01-18 17:37:00,
2013-01-18 12:42:00,25.7,1.3,30.40,NW,308,14.0,14.0,34,0.00,,,0.00,WeatherCatV1.01B143,2013-01-18 17:42:00,
2013-01-18 12:47:00,25.6,1.8,30.40,NNW,341,11.0,22.0,35,0.00,,,0.00,WeatherCatV1.01B143,2013-01-18 17:47:00,
2013-01-18 12:52:00,25.7,0.6,30.40,NNW,346,14.0,24.0,33,0.00,,,0.00,WeatherCatV1.01B143,2013-01-18 17:52:00,
2013-01-18 12:57:00,25.8,1.3,30.40,NW,305,11.0,18.0,34,0.00,,,0.00,WeatherCatV1.01B143,2013-01-18 17:57:00,
2013-01-18 13:02:00,26.1,1.6,30.40,NNW,339,17.0,19.0,34,0.00,,,0.00,WeatherCatV1.01B143,2013-01-18 18:02:00,
2013-01-18 13:07:00,26.0,0.2,30.40,NE,41,9.0,21.0,32,0.00,,,0.00,WeatherCatV1.01B143,2013-01-18 18:07:00,
2013-01-18 13:12:00,26.0,0.2,30.40,NW,304,10.0,21.0,32,0.00,,,0.00,WeatherCatV1.01B143,2013-01-18 18:12:00,
2013-01-18 13:17:00,26.0,0.9,30.40,North,10,3.0,16.0,33,0.00,,,0.00,WeatherCatV1.01B143,2013-01-18 18:17:00,
2013-01-18 13:22:00,26.4,1.2,30.40,North,359,5.0,17.0,33,0.00,,,0.00,WeatherCatV1.01B143,2013-01-18 18:22:00,
2013-01-18 13:27:00,26.3,0.5,30.41,NW,316,15.0,18.0,32,0.00,,,0.00,WeatherCatV1.01B143,2013-01-18 18:27:00,
2013-01-18 13:32:00,26.4,0.6,30.41,North,351,7.0,11.0,32,0.00,,,0.00,WeatherCatV1.01B143,2013-01-18 18:32:00,
2013-01-18 13:37:00,26.3,1.2,30.41,NW,320,8.0,12.0,33,0.00,,,0.00,WeatherCatV1.01B143,2013-01-18 18:37:00,
2013-01-18 13:42:00,26.5,2.6,30.41,NW,318,19.0,19.0,35,0.00,,,0.00,WeatherCatV1.01B143,2013-01-18 18:42:00,
2013-01-18 13:47:00,26.7,2.8,30.41,WNW,292,11.0,13.0,35,0.00,,,0.00,WeatherCatV1.01B143,2013-01-18 18:47:00,
2013-01-18 13:52:00,26.2,-0.3,30.41,NW,305,17.0,21.0,31,0.00,,,0.00,WeatherCatV1.01B143,2013-01-18 18:52:00,
2013-01-18 13:57:00,26.3,1.8,30.41,NNW,346,4.0,13.0,34,0.00,,,0.00,WeatherCatV1.01B143,2013-01-18 18:57:00,
2013-01-18 14:02:00,26.7,1.5,30.40,NW,305,12.0,16.0,33,0.00,,,0.00,WeatherCatV1.01B143,2013-01-18 19:02:00,
2013-01-18 14:07:00,26.6,0.1,30.41,North,355,11.0,14.0,31,0.00,,,0.00,WeatherCatV1.01B143,2013-01-18 19:07:00,
2013-01-18 14:12:00,26.7,1.5,30.41,WNW,299,13.0,20.0,33,0.00,,,0.00,WeatherCatV1.01B143,2013-01-18 19:12:00,
2013-01-18 14:17:00,26.6,0.8,30.41,NW,309,15.0,16.0,32,0.00,,,0.00,WeatherCatV1.01B143,2013-01-18 19:17:00,
2013-01-18 14:22:00,26.6,0.8,30.41,NW,304,17.0,20.0,32,0.00,,,0.00,WeatherCatV1.01B143,2013-01-18 19:22:00,
2013-01-18 14:27:00,26.5,0.7,30.40,NW,311,18.0,24.0,32,0.00,,,0.00,WeatherCatV1.01B143,2013-01-18 19:27:00,
2013-01-18 14:32:00,26.4,-0.1,30.41,NNW,331,17.0,25.0,31,0.00,,,0.00,WeatherCatV1.01B143,2013-01-18 19:32:00,
2013-01-18 14:37:00,26.7,2.1,30.41,WNW,302,10.0,17.0,34,0.00,,,0.00,WeatherCatV1.01B143,2013-01-18 19:37:00,
2013-01-18 14:42:00,27.0,1.8,30.41,NW,311,8.0,21.0,33,0.00,,,0.00,WeatherCatV1.01B143,2013-01-18 19:42:00,
2013-01-18 14:47:00,26.9,1.7,30.42,NW,309,18.0,21.0,33,0.00,,,0.00,WeatherCatV1.01B143,2013-01-18 19:47:00,
2013-01-18 14:52:00,27.0,3.6,30.42,North,349,15.0,22.0,36,0.00,,,0.00,WeatherCatV1.01B143,2013-01-18 19:52:00,
2013-01-18 14:57:00,26.9,1.7,30.43,NNW,337,19.0,24.0,33,0.00,,,0.00,WeatherCatV1.01B143,2013-01-18 19:57:00,
2013-01-18 15:02:00,26.8,2.2,30.43,WNW,295,11.0,18.0,34,0.00,,,0.00,WeatherCatV1.01B143,2013-01-18 20:02:00,
2013-01-18 15:07:00,27.0,2.4,30.43,WNW,298,18.0,18.0,34,0.00,,,0.00,WeatherCatV1.01B143,2013-01-18 20:07:00,
2013-01-18 15:12:00,27.0,2.4,30.43,WNW,299,6.0,20.0,34,0.00,,,0.00,WeatherCatV1.01B143,2013-01-18 20:12:00,
2013-01-18 15:17:00,26.9,2.3,30.43,WNW,301,14.0,19.0,34,0.00,,,0.00,WeatherCatV1.01B143,2013-01-18 20:17:00,
2013-01-18 15:22:00,26.8,2.9,30.43,NW,325,9.0,15.0,35,0.00,,,0.00,WeatherCatV1.01B143,2013-01-18 20:22:00,
2013-01-18 15:27:00,26.9,2.3,30.43,NW,306,13.0,17.0,34,0.00,,,0.00,WeatherCatV1.01B143,2013-01-18 20:27:00,
2013-01-18 15:32:00,26.9,2.9,30.43,WNW,302,20.0,20.0,35,0.00,,,0.00,WeatherCatV1.01B143,2013-01-18 20:32:00,
2013-01-18 15:37:00,26.8,2.9,30.43,North,3,8.0,18.0,35,0.00,,,0.00,WeatherCatV1.01B143,2013-01-18 20:37:00,
2013-01-18 15:42:00,26.6,2.1,30.43,NW,309,9.0,20.0,34,0.00,,,0.00,WeatherCatV1.01B143,2013-01-18 20:42:00,
2013-01-18 15:47:00,26.5,2.0,30.43,NNW,328,13.0,20.0,34,0.00,,,0.00,WeatherCatV1.01B143,2013-01-18 20:47:00,
2013-01-18 15:52:00,26.5,2.6,30.44,NW,309,10.0,17.0,35,0.00,,,0.00,WeatherCatV1.01B143,2013-01-18 20:52:00,
2013-01-18 15:57:00,26.5,2.0,30.44,NW,312,12.0,16.0,34,0.00,,,0.00,WeatherCatV1.01B143,2013-01-18 20:57:00,
2013-01-18 16:02:00,26.6,3.3,30.44,NNE,23,3.0,10.0,36,0.00,,,0.00,WeatherCatV1.01B143,2013-01-18 21:02:00,
2013-01-18 16:07:00,26.7,2.8,30.45,NW,309,10.0,12.0,35,0.00,,,0.00,WeatherCatV1.01B143,2013-01-18 21:07:00,
2013-01-18 16:12:00,26.5,2.6,30.44,WNW,301,9.0,15.0,35,0.00,,,0.00,WeatherCatV1.01B143,2013-01-18 21:12:00,
2013-01-18 16:17:00,26.4,3.1,30.45,NNE,17,3.0,12.0,36,0.00,,,0.00,WeatherCatV1.01B143,2013-01-18 21:17:00,
2013-01-18 16:22:00,26.3,3.0,30.44,NW,325,11.0,12.0,36,0.00,,,0.00,WeatherCatV1.01B143,2013-01-18 21:22:00,
2013-01-18 16:27:00,26.1,4.0,30.45,NW,310,4.0,10.0,38,0.00,,,0.00,WeatherCatV1.01B143,2013-01-18 21:27:00,
2013-01-18 16:32:00,25.9,3.3,30.44,NNW,332,8.0,12.0,37,0.00,,,0.00,WeatherCatV1.01B143,2013-01-18 21:32:00,
2013-01-18 16:37:00,25.7,3.1,30.45,NW,304,4.0,12.0,37,0.00,,,0.00,WeatherCatV1.01B143,2013-01-18 21:37:00,
2013-01-18 16:42:00,25.5,3.5,30.45,NW,308,7.0,15.0,38,0.00,,,0.00,WeatherCatV1.01B143,2013-01-18 21:42:00,
2013-01-18 16:47:00,25.2,2.6,30.45,NW,304,7.0,13.0,37,0.00,,,0.00,WeatherCatV1.01B143,2013-01-18 21:47:00,
2013-01-18 16:52:00,24.9,2.4,30.45,NW,306,7.0,9.0,37,0.00,,,0.00,WeatherCatV1.01B143,2013-01-18 21:52:00,
2013-01-18 16:57:00,24.8,2.3,30.46,WNW,303,8.0,10.0,37,0.00,,,0.00,WeatherCatV1.01B143,2013-01-18 21:57:00,
2013-01-18 17:02:00,24.7,2.7,30.46,NW,312,6.0,9.0,38,0.00,,,0.00,WeatherCatV1.01B143,2013-01-18 22:02:00,
2013-01-18 17:07:00,24.5,3.7,30.46,NW,305,4.0,9.0,40,0.00,,,0.00,WeatherCatV1.01B143,2013-01-18 22:07:00,
2013-01-18 17:12:00,24.3,4.0,30.46,WNW,298,7.0,9.0,41,0.00,,,0.00,WeatherCatV1.01B143,2013-01-18 22:12:00,
2013-01-18 17:17:00,24.3,4.0,30.46,North,354,6.0,9.0,41,0.00,,,0.00,WeatherCatV1.01B143,2013-01-18 22:17:00,
2013-01-18 17:22:00,24.3,4.5,30.46,NW,306,6.0,9.0,42,0.00,,,0.00,WeatherCatV1.01B143,2013-01-18 22:22:00,
2013-01-18 17:27:00,24.2,4.5,30.47,WNW,301,3.0,8.0,42,0.00,,,0.00,WeatherCatV1.01B143,2013-01-18 22:27:00,
2013-01-18 17:32:00,24.0,4.8,30.47,WNW,298,4.0,5.0,43,0.00,,,0.00,WeatherCatV1.01B143,2013-01-18 22:32:00,
2013-01-18 17:37:00,23.9,4.7,30.47,WNW,288,5.0,5.0,43,0.00,,,0.00,WeatherCatV1.01B143,2013-01-18 22:37:00,
2013-01-18 17:42:00,23.9,4.2,30.47,WNW,301,5.0,6.0,42,0.00,,,0.00,WeatherCatV1.01B143,2013-01-18 22:42:00,
2013-01-18 17:47:00,23.8,4.1,30.47,NW,312,7.0,8.0,42,0.00,,,0.00,WeatherCatV1.01B143,2013-01-18 22:47:00,
2013-01-18 17:52:00,23.8,4.1,30.47,WNW,292,9.0,10.0,42,0.00,,,0.00,WeatherCatV1.01B143,2013-01-18 22:52:00,
2013-01-18 17:57:00,23.8,4.6,30.47,WNW,292,5.0,7.0,43,0.00,,,0.00,WeatherCatV1.01B143,2013-01-18 22:57:00,
2013-01-18 18:02:00,23.9,3.7,30.47,WNW,297,4.0,6.0,41,0.00,,,0.00,WeatherCatV1.01B143,2013-01-18 23:02:00,
2013-01-18 18:07:00,23.7,5.0,30.48,West,273,0.0,0.0,44,0.00,,,0.00,WeatherCatV1.01B143,2013-01-18 23:07:00,
2013-01-18 18:12:00,23.6,4.9,30.48,West,273,0.0,0.0,44,0.00,,,0.00,WeatherCatV1.01B143,2013-01-18 23:12:00,
2013-01-18 18:17:00,23.6,3.9,30.48,WNW,301,1.0,2.0,42,0.00,,,0.00,WeatherCatV1.01B143,2013-01-18 23:17:00,
2013-01-18 18:22:00,23.7,3.5,30.48,WNW,301,0.0,3.0,41,0.00,,,0.00,WeatherCatV1.01B143,2013-01-18 23:22:00,
2013-01-18 18:27:00,23.7,4.0,30.49,WNW,284,3.0,5.0,42,0.00,,,0.00,WeatherCatV1.01B143,2013-01-18 23:27:00,
2013-01-18 18:32:00,23.7,4.5,30.49,WNW,296,7.0,7.0,43,0.00,,,0.00,WeatherCatV1.01B143,2013-01-18 23:32:00,
2013-01-18 18:37:00,23.6,4.4,30.49,WNW,295,4.0,7.0,43,0.00,,,0.00,WeatherCatV1.01B143,2013-01-18 23:37:00,
2013-01-18 18:42:00,23.5,4.8,30.50,West,270,3.0,4.0,44,0.00,,,0.00,WeatherCatV1.01B143,2013-01-18 23:42:00,
2013-01-18 18:47:00,23.7,5.5,30.50,WNW,288,3.0,5.0,45,0.00,,,0.00,WeatherCatV1.01B143,2013-01-18 23:47:00,
2013-01-18 18:52:00,23.7,5.0,30.51,NW,305,4.0,5.0,44,0.00,,,0.00,WeatherCatV1.01B143,2013-01-18 23:52:00,
2013-01-18 18:57:00,23.6,4.9,30.51,WNW,298,4.0,6.0,44,0.00,,,0.00,WeatherCatV1.01B143,2013-01-18 23:57:00,
2013-01-18 19:02:00,23.6,5.9,30.52,West,275,3.0,4.0,46,0.00,,,0.00,WeatherCatV1.01B143,2013-01-19 00:02:00,
2013-01-18 19:07:00,23.6,5.4,30.52,WNW,294,5.0,5.0,45,0.00,,,0.00,WeatherCatV1.01B143,2013-01-19 00:07:00,
2013-01-18 19:12:00,23.6,4.9,30.51,WNW,297,5.0,6.0,44,0.00,,,0.00,WeatherCatV1.01B143,2013-01-19 00:12:00,
2013-01-18 19:17:00,23.6,5.4,30.51,WNW,294,6.0,7.0,45,0.00,,,0.00,WeatherCatV1.01B143,2013-01-19 00:17:00,
2013-01-18 19:22:00,23.6,5.9,30.51,WNW,299,5.0,6.0,46,0.00,,,0.00,WeatherCatV1.01B143,2013-01-19 00:22:00,
2013-01-18 19:27:00,23.6,5.4,30.52,WNW,296,4.0,4.0,45,0.00,,,0.00,WeatherCatV1.01B143,2013-01-19 00:27:00,
2013-01-18 19:32:00,23.7,5.5,30.52,WNW,296,4.0,6.0,45,0.00,,,0.00,WeatherCatV1.01B143,2013-01-19 00:32:00,
2013-01-18 19:37:00,23.7,6.0,30.51,NW,307,3.0,6.0,46,0.00,,,0.00,WeatherCatV1.01B143,2013-01-19 00:37:00,
2013-01-18 19:42:00,23.8,6.1,30.51,NW,304,5.0,6.0,46,0.00,,,0.00,WeatherCatV1.01B143,2013-01-19 00:42:00,
2013-01-18 19:47:00,23.8,6.5,30.51,WNW,298,3.0,5.0,47,0.00,,,0.00,WeatherCatV1.01B143,2013-01-19 00:47:00,
2013-01-18 19:52:00,23.8,5.6,30.51,WNW,301,5.0,6.0,45,0.00,,,0.00,WeatherCatV1.01B143,2013-01-19 00:52:00,
2013-01-18 19:57:00,23.8,6.1,30.51,WNW,302,2.0,5.0,46,0.00,,,0.00,WeatherCatV1.01B143,2013-01-19 00:57:00,
2013-01-18 20:02:00,23.9,6.6,30.51,WNW,292,6.0,6.0,47,0.00,,,0.00,WeatherCatV1.01B143,2013-01-19 01:02:00,
2013-01-18 20:07:00,24.0,6.3,30.50,WNW,301,3.0,3.0,46,0.00,,,0.00,WeatherCatV1.01B143,2013-01-19 01:07:00,
2013-01-18 20:12:00,24.0,5.8,30.50,WNW,301,3.0,4.0,45,0.00,,,0.00,WeatherCatV1.01B143,2013-01-19 01:12:00,
2013-01-18 20:17:00,24.0,6.3,30.50,WNW,299,0.0,0.0,46,0.00,,,0.00,WeatherCatV1.01B143,2013-01-19 01:17:00,
2013-01-18 20:22:00,23.9,6.2,30.50,NW,309,0.0,0.0,46,0.00,,,0.00,WeatherCatV1.01B143,2013-01-19 01:22:00,
2013-01-18 20:27:00,23.8,8.3,30.50,NW,306,5.0,5.0,51,0.00,,,0.00,WeatherCatV1.01B143,2013-01-19 01:27:00,
2013-01-18 20:33:00,23.7,8.2,30.50,NW,315,4.0,4.0,51,0.00,,,0.00,WeatherCatV1.01B143,2013-01-19 01:33:00,
2013-01-18 20:38:00,23.6,9.0,30.50,NW,307,1.0,3.0,53,0.00,,,0.00,WeatherCatV1.01B143,2013-01-19 01:38:00,
2013-01-18 20:43:00,23.4,8.4,30.49,WNW,295,2.0,4.0,52,0.00,,,0.00,WeatherCatV1.01B143,2013-01-19 01:43:00,
2013-01-18 20:48:00,23.4,9.2,30.49,NW,318,1.0,5.0,54,0.00,,,0.00,WeatherCatV1.01B143,2013-01-19 01:48:00,
2013-01-18 20:53:00,23.3,9.6,30.49,WNW,287,0.0,3.0,55,0.00,,,0.00,WeatherCatV1.01B143,2013-01-19 01:53:00,
2013-01-18 20:58:00,23.4,10.4,30.49,West,277,0.0,4.0,57,0.00,,,0.00,WeatherCatV1.01B143,2013-01-19 01:58:00,
2013-01-18 21:03:00,26.1,13.0,30.49,WSW,256,13.0,22.0,57,0.00,,,0.00,WeatherCatV1.01B143,2013-01-19 02:03:00,
2013-01-18 21:08:00,27.7,15.3,30.49,West,259,21.0,24.0,59,0.00,,,0.00,WeatherCatV1.01B143,2013-01-19 02:08:00,
2013-01-18 21:13:00,28.1,13.2,30.49,West,264,15.0,15.0,53,0.00,,,0.00,WeatherCatV1.01B143,2013-01-19 02:13:00,
2013-01-18 21:18:00,28.4,14.3,30.49,West,261,18.0,20.0,55,0.00,,,0.00,WeatherCatV1.01B143,2013-01-19 02:18:00,
2013-01-18 21:23:00,28.3,13.8,30.49,West,263,16.0,19.0,54,0.00,,,0.00,WeatherCatV1.01B143,2013-01-19 02:23:00,
2013-01-18 21:28:00,28.4,14.3,30.49,West,261,20.0,20.0,55,0.00,,,0.00,WeatherCatV1.01B143,2013-01-19 02:28:00,
2013-01-18 21:33:00,28.3,14.6,30.48,West,261,11.0,20.0,56,0.00,,,0.00,WeatherCatV1.01B143,2013-01-19 02:33:00,
2013-01-18 21:38:00,28.4,14.7,30.48,West,263,19.0,19.0,56,0.00,,,0.00,WeatherCatV1.01B143,2013-01-19 02:38:00,
2013-01-18 21:43:00,28.6,14.1,30.48,West,268,18.0,25.0,54,0.00,,,0.00,WeatherCatV1.01B143,2013-01-19 02:43:00,
2013-01-18 21:48:00,28.6,14.1,30.48,West,263,18.0,22.0,54,0.00,,,0.00,WeatherCatV1.01B143,2013-01-19 02:48:00,
2013-01-18 21:53:00,28.6,14.9,30.48,WSW,246,21.0,22.0,56,0.00,,,0.00,WeatherCatV1.01B143,2013-01-19 02:53:00,
2013-01-18 21:58:00,28.8,15.5,30.48,WSW,245,18.0,22.0,57,0.00,,,0.00,WeatherCatV1.01B143,2013-01-19 02:58:00,
2013-01-18 22:03:00,28.8,14.7,30.48,West,269,18.0,21.0,55,0.00,,,0.00,WeatherCatV1.01B143,2013-01-19 03:03:00,
2013-01-18 22:08:00,28.8,15.1,30.47,WSW,253,21.0,27.0,56,0.00,,,0.00,WeatherCatV1.01B143,2013-01-19 03:08:00,
2013-01-18 22:13:00,28.9,15.2,30.47,West,261,11.0,20.0,56,0.00,,,0.00,WeatherCatV1.01B143,2013-01-19 03:13:00,
2013-01-18 22:18:00,28.9,15.2,30.47,West,277,14.0,24.0,56,0.00,,,0.00,WeatherCatV1.01B143,2013-01-19 03:18:00,
2013-01-18 22:23:00,28.7,14.6,30.47,WSW,256,18.0,22.0,55,0.00,,,0.00,WeatherCatV1.01B143,2013-01-19 03:23:00,
2013-01-18 22:28:00,28.7,14.2,30.46,West,268,16.0,21.0,54,0.00,,,0.00,WeatherCatV1.01B143,2013-01-19 03:28:00,
2013-01-18 22:33:00,29.0,15.7,30.46,West,270,19.0,19.0,57,0.00,,,0.00,WeatherCatV1.01B143,2013-01-19 03:33:00,
2013-01-18 22:38:00,29.1,15.4,30.46,WSW,247,16.0,19.0,56,0.00,,,0.00,WeatherCatV1.01B143,2013-01-19 03:38:00,
2013-01-18 22:43:00,29.2,13.4,30.46,WSW,253,17.0,20.0,51,0.00,,,0.00,WeatherCatV1.01B143,2013-01-19 03:43:00,
2013-01-18 22:48:00,29.4,15.3,30.46,West,271,18.0,20.0,55,0.00,,,0.00,WeatherCatV1.01B143,2013-01-19 03:48:00,
2013-01-18 22:53:00,29.4,16.1,30.46,West,277,19.0,19.0,57,0.00,,,0.00,WeatherCatV1.01B143,2013-01-19 03:53:00,
2013-01-18 22:58:00,29.6,15.4,30.46,West,273,21.0,23.0,55,0.00,,,0.00,WeatherCatV1.01B143,2013-01-19 03:58:00,
2013-01-18 23:03:00,29.6,15.9,30.46,WNW,290,17.0,23.0,56,0.00,,,0.00,WeatherCatV1.01B143,2013-01-19 04:03:00,
2013-01-18 23:08:00,29.9,16.9,30.46,WNW,283,8.0,21.0,58,0.00,,,0.00,WeatherCatV1.01B143,2013-01-19 04:08:00,
2013-01-18 23:13:00,29.7,14.7,30.46,West,277,18.0,23.0,53,0.00,,,0.00,WeatherCatV1.01B143,2013-01-19 04:13:00,
2013-01-18 23:18:00,29.7,15.5,30.46,West,264,13.0,19.0,55,0.00,,,0.00,WeatherCatV1.01B143,2013-01-19 04:18:00,
2013-01-18 23:23:00,29.8,16.0,30.46,West,269,16.0,21.0,56,0.00,,,0.00,WeatherCatV1.01B143,2013-01-19 04:23:00,
2013-01-18 23:28:00,29.9,15.3,30.46,WSW,252,21.0,27.0,54,0.00,,,0.00,WeatherCatV1.01B143,2013-01-19 04:28:00,
2013-01-18 23:33:00,29.8,15.2,30.46,WSW,249,17.0,21.0,54,0.00,,,0.00,WeatherCatV1.01B143,2013-01-19 04:33:00,
2013-01-18 23:38:00,30.0,15.4,30.46,West,269,20.0,26.0,54,0.00,,,0.00,WeatherCatV1.01B143,2013-01-19 04:38:00,
2013-01-18 23:43:00,30.2,17.6,30.46,West,263,20.0,23.0,59,0.00,,,0.00,WeatherCatV1.01B143,2013-01-19 04:43:00,
2013-01-18 23:48:00,30.3,17.7,30.46,West,271,20.0,23.0,59,0.00,,,0.00,WeatherCatV1.01B143,2013-01-19 04:48:00,
2013-01-18 23:53:00,30.4,19.0,30.46,West,263,20.0,24.0,62,0.00,,,0.00,WeatherCatV1.01B143,2013-01-19 04:53:00,
2013-01-18 23:58:00,30.3,16.9,30.45,West,265,18.0,21.0,57,0.00,,,0.00,WeatherCatV1.01B143,2013-01-19 04:58:00,